sensor_id;sensor_type;location;lat;lon;timestamp;temperature;humidity
69335;SHT31;56477;52.742;15.242;2023-04-03T00:01:14;0.06;82.81
69335;SHT31;56477;52.742;15.242;2023-04-03T00:03:40;0.06;83.09
69335;SHT31;56477;52.742;15.242;2023-04-03T00:06:10;0.07;83.22
69335;SHT31;56477;52.742;15.242;2023-04-03T00:08:38;0.03;83.23
69335;SHT31;56477;52.742;15.242;2023-04-03T00:11:05;-0.03;83.27
69335;SHT31;56477;52.742;15.242;2023-04-03T00:13:31;-0.04;83.12
69335;SHT31;56477;52.742;15.242;2023-04-03T00:15:58;-0.08;83.60
69335;SHT31;56477;52.742;15.242;2023-04-03T00:18:24;-0.10;83.86
69335;SHT31;56477;52.742;15.242;2023-04-03T00:20:50;-0.17;83.78
69335;SHT31;56477;52.742;15.242;2023-04-03T00:23:16;-0.19;84.08
69335;SHT31;56477;52.742;15.242;2023-04-03T00:25:43;-0.21;84.17
69335;SHT31;56477;52.742;15.242;2023-04-03T00:28:09;-0.24;84.43
69335;SHT31;56477;52.742;15.242;2023-04-03T00:30:35;-0.31;84.56
69335;SHT31;56477;52.742;15.242;2023-04-03T00:33:01;-0.29;84.67
69335;SHT31;56477;52.742;15.242;2023-04-03T00:35:28;-0.36;85.30
69335;SHT31;56477;52.742;15.242;2023-04-03T00:37:55;-0.38;85.00
69335;SHT31;56477;52.742;15.242;2023-04-03T00:40:26;-0.39;84.71
69335;SHT31;56477;52.742;15.242;2023-04-03T00:42:56;-0.41;84.95
69335;SHT31;56477;52.742;15.242;2023-04-03T00:47:50;-0.41;84.87
69335;SHT31;56477;52.742;15.242;2023-04-03T00:50:17;-0.39;85.18
69335;SHT31;56477;52.742;15.242;2023-04-03T00:52:43;-0.42;84.82
69335;SHT31;56477;52.742;15.242;2023-04-03T00:55:12;-0.42;84.80
69335;SHT31;56477;52.742;15.242;2023-04-03T00:57:40;-0.42;84.82
69335;SHT31;56477;52.742;15.242;2023-04-03T01:00:11;-0.43;84.82
69335;SHT31;56477;52.742;15.242;2023-04-03T01:02:38;-0.42;85.17
69335;SHT31;56477;52.742;15.242;2023-04-03T01:05:07;-0.46;85.01
69335;SHT31;56477;52.742;15.242;2023-04-03T01:07:34;-0.41;84.70
69335;SHT31;56477;52.742;15.242;2023-04-03T01:10:07;-0.43;84.56
69335;SHT31;56477;52.742;15.242;2023-04-03T01:12:39;-0.46;84.93
69335;SHT31;56477;52.742;15.242;2023-04-03T01:15:12;-0.49;85.00
69335;SHT31;56477;52.742;15.242;2023-04-03T01:17:40;-0.53;85.14
69335;SHT31;56477;52.742;15.242;2023-04-03T01:25:29;-0.52;85.24
69335;SHT31;56477;52.742;15.242;2023-04-03T01:27:55;-0.55;85.26
69335;SHT31;56477;52.742;15.242;2023-04-03T01:30:25;-0.58;85.22
69335;SHT31;56477;52.742;15.242;2023-04-03T01:32:53;-0.61;85.47
69335;SHT31;56477;52.742;15.242;2023-04-03T01:35:19;-0.62;85.50
69335;SHT31;56477;52.742;15.242;2023-04-03T01:37:45;-0.61;85.37
69335;SHT31;56477;52.742;15.242;2023-04-03T01:40:11;-0.63;85.73
69335;SHT31;56477;52.742;15.242;2023-04-03T01:42:37;-0.65;85.63
69335;SHT31;56477;52.742;15.242;2023-04-03T01:45:03;-0.66;85.71
69335;SHT31;56477;52.742;15.242;2023-04-03T01:47:29;-0.65;85.86
69335;SHT31;56477;52.742;15.242;2023-04-03T01:49:55;-0.68;85.96
69335;SHT31;56477;52.742;15.242;2023-04-03T01:52:21;-0.70;86.13
69335;SHT31;56477;52.742;15.242;2023-04-03T01:54:47;-0.70;86.09
69335;SHT31;56477;52.742;15.242;2023-04-03T01:57:13;-0.69;86.29
69335;SHT31;56477;52.742;15.242;2023-04-03T01:59:40;-0.69;86.16
69335;SHT31;56477;52.742;15.242;2023-04-03T02:02:06;-0.69;86.35
69335;SHT31;56477;52.742;15.242;2023-04-03T02:04:32;-0.66;86.25
69335;SHT31;56477;52.742;15.242;2023-04-03T02:06:58;-0.69;86.27
69335;SHT31;56477;52.742;15.242;2023-04-03T02:09:24;-0.69;86.21
69335;SHT31;56477;52.742;15.242;2023-04-03T02:11:52;-0.73;86.17
69335;SHT31;56477;52.742;15.242;2023-04-03T02:14:18;-0.70;86.35
69335;SHT31;56477;52.742;15.242;2023-04-03T02:16:44;-0.70;86.25
69335;SHT31;56477;52.742;15.242;2023-04-03T02:19:10;-0.69;86.52
69335;SHT31;56477;52.742;15.242;2023-04-03T02:21:35;-0.69;86.45
69335;SHT31;56477;52.742;15.242;2023-04-03T02:24:02;-0.69;86.39
69335;SHT31;56477;52.742;15.242;2023-04-03T02:26:27;-0.68;86.37
69335;SHT31;56477;52.742;15.242;2023-04-03T02:28:54;-0.65;86.43
69335;SHT31;56477;52.742;15.242;2023-04-03T02:31:19;-0.68;86.39
69335;SHT31;56477;52.742;15.242;2023-04-03T02:33:46;-0.66;86.45
69335;SHT31;56477;52.742;15.242;2023-04-03T02:36:12;-0.66;86.45
69335;SHT31;56477;52.742;15.242;2023-04-03T02:38:38;-0.66;86.51
69335;SHT31;56477;52.742;15.242;2023-04-03T02:41:09;-0.69;86.38
69335;SHT31;56477;52.742;15.242;2023-04-03T02:43:36;-0.70;86.45
69335;SHT31;56477;52.742;15.242;2023-04-03T02:46:02;-0.73;86.72
69335;SHT31;56477;52.742;15.242;2023-04-03T02:48:29;-0.76;86.59
69335;SHT31;56477;52.742;15.242;2023-04-03T02:50:55;-0.79;86.70
69335;SHT31;56477;52.742;15.242;2023-04-03T02:53:21;-0.80;86.95
69335;SHT31;56477;52.742;15.242;2023-04-03T02:55:47;-0.80;86.86
69335;SHT31;56477;52.742;15.242;2023-04-03T02:58:14;-0.79;86.75
69335;SHT31;56477;52.742;15.242;2023-04-03T03:00:40;-0.82;86.67
69335;SHT31;56477;52.742;15.242;2023-04-03T03:03:06;-0.80;86.79
69335;SHT31;56477;52.742;15.242;2023-04-03T03:05:32;-0.83;86.55
69335;SHT31;56477;52.742;15.242;2023-04-03T03:07:58;-0.84;86.88
69335;SHT31;56477;52.742;15.242;2023-04-03T03:10:24;-0.82;86.68
69335;SHT31;56477;52.742;15.242;2023-04-03T03:12:50;-0.84;86.77
69335;SHT31;56477;52.742;15.242;2023-04-03T03:15:16;-0.83;86.73
69335;SHT31;56477;52.742;15.242;2023-04-03T03:17:43;-0.83;86.52
69335;SHT31;56477;52.742;15.242;2023-04-03T03:20:09;-0.83;86.38
69335;SHT31;56477;52.742;15.242;2023-04-03T03:22:36;-0.83;86.35
69335;SHT31;56477;52.742;15.242;2023-04-03T03:25:02;-0.83;86.23
69335;SHT31;56477;52.742;15.242;2023-04-03T03:27:28;-0.83;86.29
69335;SHT31;56477;52.742;15.242;2023-04-03T03:29:54;-0.84;86.20
69335;SHT31;56477;52.742;15.242;2023-04-03T03:32:21;-0.86;86.15
69335;SHT31;56477;52.742;15.242;2023-04-03T03:34:46;-0.90;86.16
69335;SHT31;56477;52.742;15.242;2023-04-03T03:37:12;-0.93;86.06
69335;SHT31;56477;52.742;15.242;2023-04-03T03:39:38;-0.94;86.10
69335;SHT31;56477;52.742;15.242;2023-04-03T03:42:04;-0.96;86.00
69335;SHT31;56477;52.742;15.242;2023-04-03T03:44:30;-1.00;85.98
69335;SHT31;56477;52.742;15.242;2023-04-03T03:46:56;-1.00;86.46
69335;SHT31;56477;52.742;15.242;2023-04-03T03:49:22;-1.07;86.38
69335;SHT31;56477;52.742;15.242;2023-04-03T03:51:48;-1.10;86.39
69335;SHT31;56477;52.742;15.242;2023-04-03T03:54:14;-1.08;86.49
69335;SHT31;56477;52.742;15.242;2023-04-03T03:56:41;-1.07;86.26
69335;SHT31;56477;52.742;15.242;2023-04-03T03:59:06;-1.14;86.52
69335;SHT31;56477;52.742;15.242;2023-04-03T04:01:33;-1.14;86.38
69335;SHT31;56477;52.742;15.242;2023-04-03T04:03:58;-1.14;86.51
69335;SHT31;56477;52.742;15.242;2023-04-03T04:06:25;-1.18;86.59
69335;SHT31;56477;52.742;15.242;2023-04-03T04:08:51;-1.20;86.74
69335;SHT31;56477;52.742;15.242;2023-04-03T04:11:17;-1.20;86.74
69335;SHT31;56477;52.742;15.242;2023-04-03T04:13:44;-1.21;87.08
69335;SHT31;56477;52.742;15.242;2023-04-03T04:16:10;-1.22;87.14
69335;SHT31;56477;52.742;15.242;2023-04-03T04:18:36;-1.24;87.33
69335;SHT31;56477;52.742;15.242;2023-04-03T04:21:02;-1.28;87.22
69335;SHT31;56477;52.742;15.242;2023-04-03T04:23:28;-1.30;87.53
69335;SHT31;56477;52.742;15.242;2023-04-03T04:25:54;-1.31;87.39
69335;SHT31;56477;52.742;15.242;2023-04-03T04:28:20;-1.31;87.66
69335;SHT31;56477;52.742;15.242;2023-04-03T04:30:46;-1.32;87.80
69335;SHT31;56477;52.742;15.242;2023-04-03T04:33:12;-1.35;87.83
69335;SHT31;56477;52.742;15.242;2023-04-03T04:35:42;-1.34;87.84
69335;SHT31;56477;52.742;15.242;2023-04-03T04:38:07;-1.35;87.82
69335;SHT31;56477;52.742;15.242;2023-04-03T04:40:34;-1.32;87.75
69335;SHT31;56477;52.742;15.242;2023-04-03T04:43:00;-1.35;87.72
69335;SHT31;56477;52.742;15.242;2023-04-03T04:45:26;-1.40;87.84
69335;SHT31;56477;52.742;15.242;2023-04-03T04:47:55;-1.38;87.71
69335;SHT31;56477;52.742;15.242;2023-04-03T04:50:21;-1.38;87.66
69335;SHT31;56477;52.742;15.242;2023-04-03T04:52:47;-1.40;87.85
69335;SHT31;56477;52.742;15.242;2023-04-03T04:55:13;-1.37;87.84
69335;SHT31;56477;52.742;15.242;2023-04-03T04:57:39;-1.35;87.93
69335;SHT31;56477;52.742;15.242;2023-04-03T05:00:06;-1.32;87.72
69335;SHT31;56477;52.742;15.242;2023-04-03T05:02:32;-1.28;87.63
69335;SHT31;56477;52.742;15.242;2023-04-03T05:04:58;-1.24;87.41
69335;SHT31;56477;52.742;15.242;2023-04-03T05:07:24;-1.25;87.25
69335;SHT31;56477;52.742;15.242;2023-04-03T05:09:50;-1.21;87.31
69335;SHT31;56477;52.742;15.242;2023-04-03T05:12:16;-1.20;87.09
69335;SHT31;56477;52.742;15.242;2023-04-03T05:14:43;-1.18;86.89
69335;SHT31;56477;52.742;15.242;2023-04-03T05:17:09;-1.17;86.97
69335;SHT31;56477;52.742;15.242;2023-04-03T05:19:35;-1.15;86.64
69335;SHT31;56477;52.742;15.242;2023-04-03T05:22:01;-1.14;86.48
69335;SHT31;56477;52.742;15.242;2023-04-03T05:24:27;-1.08;86.67
69335;SHT31;56477;52.742;15.242;2023-04-03T05:26:53;-1.03;86.40
69335;SHT31;56477;52.742;15.242;2023-04-03T05:29:20;-1.03;86.14
69335;SHT31;56477;52.742;15.242;2023-04-03T05:31:45;-0.99;86.03
69335;SHT31;56477;52.742;15.242;2023-04-03T05:34:12;-0.90;85.71
69335;SHT31;56477;52.742;15.242;2023-04-03T05:36:38;-0.87;86.05
69335;SHT31;56477;52.742;15.242;2023-04-03T05:39:04;-0.77;85.55
69335;SHT31;56477;52.742;15.242;2023-04-03T05:41:29;-0.73;85.29
69335;SHT31;56477;52.742;15.242;2023-04-03T05:43:55;-0.68;85.39
69335;SHT31;56477;52.742;15.242;2023-04-03T05:46:21;-0.61;84.80
69335;SHT31;56477;52.742;15.242;2023-04-03T05:48:48;-0.52;84.62
69335;SHT31;56477;52.742;15.242;2023-04-03T05:51:17;-0.45;84.40
69335;SHT31;56477;52.742;15.242;2023-04-03T05:53:44;-0.38;83.42
69335;SHT31;56477;52.742;15.242;2023-04-03T05:56:11;-0.24;83.43
69335;SHT31;56477;52.742;15.242;2023-04-03T05:58:37;-0.10;82.50
69335;SHT31;56477;52.742;15.242;2023-04-03T06:01:03;0.05;81.99
69335;SHT31;56477;52.742;15.242;2023-04-03T06:03:29;0.20;81.05
69335;SHT31;56477;52.742;15.242;2023-04-03T06:05:55;0.31;80.70
69335;SHT31;56477;52.742;15.242;2023-04-03T06:08:21;0.43;80.00
69335;SHT31;56477;52.742;15.242;2023-04-03T06:10:49;0.55;79.39
69335;SHT31;56477;52.742;15.242;2023-04-03T06:13:16;0.71;79.06
69335;SHT31;56477;52.742;15.242;2023-04-03T06:15:42;0.97;77.99
69335;SHT31;56477;52.742;15.242;2023-04-03T06:18:08;1.29;76.48
69335;SHT31;56477;52.742;15.242;2023-04-03T06:20:35;1.46;74.23
69335;SHT31;56477;52.742;15.242;2023-04-03T06:23:01;1.70;74.15
69335;SHT31;56477;52.742;15.242;2023-04-03T06:25:27;1.91;72.64
69335;SHT31;56477;52.742;15.242;2023-04-03T06:27:53;2.05;72.14
69335;SHT31;56477;52.742;15.242;2023-04-03T06:30:21;2.34;70.64
69335;SHT31;56477;52.742;15.242;2023-04-03T06:32:47;2.73;69.55
69335;SHT31;56477;52.742;15.242;2023-04-03T06:35:13;3.09;68.61
69335;SHT31;56477;52.742;15.242;2023-04-03T06:37:39;3.74;66.73
69335;SHT31;56477;52.742;15.242;2023-04-03T06:40:05;4.77;62.72
69335;SHT31;56477;52.742;15.242;2023-04-03T06:42:32;5.76;60.67
69335;SHT31;56477;52.742;15.242;2023-04-03T06:44:57;6.57;56.51
69335;SHT31;56477;52.742;15.242;2023-04-03T06:47:23;7.07;54.75
69335;SHT31;56477;52.742;15.242;2023-04-03T06:49:49;6.84;53.27
69335;SHT31;56477;52.742;15.242;2023-04-03T06:52:16;7.36;53.40
69335;SHT31;56477;52.742;15.242;2023-04-03T06:54:41;7.46;52.56
69335;SHT31;56477;52.742;15.242;2023-04-03T06:57:08;7.82;50.95
69335;SHT31;56477;52.742;15.242;2023-04-03T06:59:34;8.65;48.39
69335;SHT31;56477;52.742;15.242;2023-04-03T07:02:00;8.49;48.87
69335;SHT31;56477;52.742;15.242;2023-04-03T07:04:26;8.64;49.47
69335;SHT31;56477;52.742;15.242;2023-04-03T07:06:52;8.75;47.93
69335;SHT31;56477;52.742;15.242;2023-04-03T07:09:18;9.05;47.19
69335;SHT31;56477;52.742;15.242;2023-04-03T07:11:45;9.59;46.38
69335;SHT31;56477;52.742;15.242;2023-04-03T07:14:11;9.90;45.15
69335;SHT31;56477;52.742;15.242;2023-04-03T07:16:37;9.54;45.13
69335;SHT31;56477;52.742;15.242;2023-04-03T07:19:03;8.49;46.39
69335;SHT31;56477;52.742;15.242;2023-04-03T07:21:29;8.49;46.58
69335;SHT31;56477;52.742;15.242;2023-04-03T07:23:55;8.49;47.08
69335;SHT31;56477;52.742;15.242;2023-04-03T07:26:22;9.14;45.84
69335;SHT31;56477;52.742;15.242;2023-04-03T07:28:48;9.46;44.67
69335;SHT31;56477;52.742;15.242;2023-04-03T07:31:16;9.57;44.13
69335;SHT31;56477;52.742;15.242;2023-04-03T07:33:43;9.86;44.75
69335;SHT31;56477;52.742;15.242;2023-04-03T07:36:10;10.19;43.10
69335;SHT31;56477;52.742;15.242;2023-04-03T07:38:39;9.88;43.10
69335;SHT31;56477;52.742;15.242;2023-04-03T07:41:06;8.28;44.54
69335;SHT31;56477;52.742;15.242;2023-04-03T07:43:32;8.80;46.03
69335;SHT31;56477;52.742;15.242;2023-04-03T07:46:00;9.84;43.80
69335;SHT31;56477;52.742;15.242;2023-04-03T07:48:26;8.64;44.79
69335;SHT31;56477;52.742;15.242;2023-04-03T07:50:52;7.51;46.56
69335;SHT31;56477;52.742;15.242;2023-04-03T07:53:18;7.20;47.91
69335;SHT31;56477;52.742;15.242;2023-04-03T07:55:48;6.63;48.57
69335;SHT31;56477;52.742;15.242;2023-04-03T07:58:17;5.75;50.30
69335;SHT31;56477;52.742;15.242;2023-04-03T08:00:44;5.60;51.27
69335;SHT31;56477;52.742;15.242;2023-04-03T08:03:11;5.55;52.07
69335;SHT31;56477;52.742;15.242;2023-04-03T08:05:40;5.76;51.57
69335;SHT31;56477;52.742;15.242;2023-04-03T08:08:07;6.00;50.74
69335;SHT31;56477;52.742;15.242;2023-04-03T08:10:34;5.90;49.16
69335;SHT31;56477;52.742;15.242;2023-04-03T08:13:01;5.63;48.78
69335;SHT31;56477;52.742;15.242;2023-04-03T08:15:27;5.52;49.99
69335;SHT31;56477;52.742;15.242;2023-04-03T08:17:54;5.45;49.76
69335;SHT31;56477;52.742;15.242;2023-04-03T08:20:20;5.13;50.38
69335;SHT31;56477;52.742;15.242;2023-04-03T08:22:46;5.31;50.60
69335;SHT31;56477;52.742;15.242;2023-04-03T08:25:12;5.32;51.41
69335;SHT31;56477;52.742;15.242;2023-04-03T08:27:38;5.24;53.07
69335;SHT31;56477;52.742;15.242;2023-04-03T08:30:05;5.27;52.97
69335;SHT31;56477;52.742;15.242;2023-04-03T08:32:33;4.91;53.21
69335;SHT31;56477;52.742;15.242;2023-04-03T08:35:00;5.07;52.03
69335;SHT31;56477;52.742;15.242;2023-04-03T08:37:26;5.08;53.16
69335;SHT31;56477;52.742;15.242;2023-04-03T08:39:52;4.97;54.86
69335;SHT31;56477;52.742;15.242;2023-04-03T08:42:22;4.93;54.86
69335;SHT31;56477;52.742;15.242;2023-04-03T08:47:43;5.04;53.71
69335;SHT31;56477;52.742;15.242;2023-04-03T08:50:17;4.90;53.01
69335;SHT31;56477;52.742;15.242;2023-04-03T08:52:52;4.79;53.34
69335;SHT31;56477;52.742;15.242;2023-04-03T08:55:23;4.69;53.21
69335;SHT31;56477;52.742;15.242;2023-04-03T08:58:03;4.70;53.50
69335;SHT31;56477;52.742;15.242;2023-04-03T09:00:43;4.41;53.08
69335;SHT31;56477;52.742;15.242;2023-04-03T09:03:16;4.53;53.68
69335;SHT31;56477;52.742;15.242;2023-04-03T09:14:09;4.75;54.33
69335;SHT31;56477;52.742;15.242;2023-04-03T09:21:39;5.44;52.72
69335;SHT31;56477;52.742;15.242;2023-04-03T09:24:12;5.82;52.47
69335;SHT31;56477;52.742;15.242;2023-04-03T09:26:43;5.87;51.55
69335;SHT31;56477;52.742;15.242;2023-04-03T09:29:15;5.76;51.57
69335;SHT31;56477;52.742;15.242;2023-04-03T09:31:44;5.62;52.07
69335;SHT31;56477;52.742;15.242;2023-04-03T09:34:34;5.51;52.26
69335;SHT31;56477;52.742;15.242;2023-04-03T09:37:03;5.38;52.88
69335;SHT31;56477;52.742;15.242;2023-04-03T09:39:46;5.16;54.47
69335;SHT31;56477;52.742;15.242;2023-04-03T09:42:24;5.23;55.09
69335;SHT31;56477;52.742;15.242;2023-04-03T09:45:04;4.96;54.54
69335;SHT31;56477;52.742;15.242;2023-04-03T09:47:35;4.70;55.17
69335;SHT31;56477;52.742;15.242;2023-04-03T09:52:46;4.52;55.82
69335;SHT31;56477;52.742;15.242;2023-04-03T09:55:20;4.68;54.60
69335;SHT31;56477;52.742;15.242;2023-04-03T09:58:02;4.66;53.49
69335;SHT31;56477;52.742;15.242;2023-04-03T10:00:35;4.60;53.96
69335;SHT31;56477;52.742;15.242;2023-04-03T10:03:03;4.69;54.04
69335;SHT31;56477;52.742;15.242;2023-04-03T10:08:20;4.96;54.03
69335;SHT31;56477;52.742;15.242;2023-04-03T10:10:48;5.20;53.99
69335;SHT31;56477;52.742;15.242;2023-04-03T10:13:19;5.41;53.90
69335;SHT31;56477;52.742;15.242;2023-04-03T10:15:48;5.24;53.93
69335;SHT31;56477;52.742;15.242;2023-04-03T10:23:49;5.44;54.59
69335;SHT31;56477;52.742;15.242;2023-04-03T10:34:31;5.96;51.06
69335;SHT31;56477;52.742;15.242;2023-04-03T10:37:23;5.89;52.04
69335;SHT31;56477;52.742;15.242;2023-04-03T10:40:00;5.82;51.66
69335;SHT31;56477;52.742;15.242;2023-04-03T10:42:44;5.63;52.57
69335;SHT31;56477;52.742;15.242;2023-04-03T10:45:38;5.55;52.57
69335;SHT31;56477;52.742;15.242;2023-04-03T10:51:20;6.82;49.99
69335;SHT31;56477;52.742;15.242;2023-04-03T10:54:05;7.75;47.73
69335;SHT31;56477;52.742;15.242;2023-04-03T10:56:44;8.39;45.60
69335;SHT31;56477;52.742;15.242;2023-04-03T11:01:59;9.12;44.71
69335;SHT31;56477;52.742;15.242;2023-04-03T11:04:28;9.77;43.42
69335;SHT31;56477;52.742;15.242;2023-04-03T11:07:03;9.80;43.21
69335;SHT31;56477;52.742;15.242;2023-04-03T11:09:40;9.23;42.37
69335;SHT31;56477;52.742;15.242;2023-04-03T11:12:18;8.43;43.59
69335;SHT31;56477;52.742;15.242;2023-04-03T11:14:47;8.05;45.14
69335;SHT31;56477;52.742;15.242;2023-04-03T11:20:04;7.47;46.38
69335;SHT31;56477;52.742;15.242;2023-04-03T11:23:21;7.00;46.60
69335;SHT31;56477;52.742;15.242;2023-04-03T11:25:23;8.25;45.58
69335;SHT31;56477;52.742;15.242;2023-04-03T11:30:25;11.10;40.26
69335;SHT31;56477;52.742;15.242;2023-04-03T11:35:26;12.57;36.48
69335;SHT31;56477;52.742;15.242;2023-04-03T11:37:53;12.81;36.75
69335;SHT31;56477;52.742;15.242;2023-04-03T11:40:26;13.40;35.39
69335;SHT31;56477;52.742;15.242;2023-04-03T11:43:05;12.75;35.81
69335;SHT31;56477;52.742;15.242;2023-04-03T11:50:45;10.48;39.36
69335;SHT31;56477;52.742;15.242;2023-04-03T12:01:00;11.75;38.72
69335;SHT31;56477;52.742;15.242;2023-04-03T12:27:07;11.30;39.95
69335;SHT31;56477;52.742;15.242;2023-04-03T12:29:39;11.08;40.51
69335;SHT31;56477;52.742;15.242;2023-04-03T12:45:58;8.57;47.68
69335;SHT31;56477;52.742;15.242;2023-04-03T12:48:31;9.39;46.53
69335;SHT31;56477;52.742;15.242;2023-04-03T12:50:58;9.60;46.08
69335;SHT31;56477;52.742;15.242;2023-04-03T12:53:27;9.00;46.69
69335;SHT31;56477;52.742;15.242;2023-04-03T12:56:19;8.72;48.46
69335;SHT31;56477;52.742;15.242;2023-04-03T12:58:46;8.61;47.86
69335;SHT31;56477;52.742;15.242;2023-04-03T13:01:14;8.22;48.15
69335;SHT31;56477;52.742;15.242;2023-04-03T13:03:45;7.98;48.85
69335;SHT31;56477;52.742;15.242;2023-04-03T13:06:18;7.71;47.16
69335;SHT31;56477;52.742;15.242;2023-04-03T13:08:54;7.67;47.82
69335;SHT31;56477;52.742;15.242;2023-04-03T13:11:24;7.55;48.89
69335;SHT31;56477;52.742;15.242;2023-04-03T13:13:58;7.47;47.81
69335;SHT31;56477;52.742;15.242;2023-04-03T13:16:24;7.61;48.80
69335;SHT31;56477;52.742;15.242;2023-04-03T13:18:52;8.64;46.71
69335;SHT31;56477;52.742;15.242;2023-04-03T13:21:27;10.17;43.16
69335;SHT31;56477;52.742;15.242;2023-04-03T13:24:00;9.74;43.72
69335;SHT31;56477;52.742;15.242;2023-04-03T13:26:29;9.46;45.06
69335;SHT31;56477;52.742;15.242;2023-04-03T13:29:00;8.68;45.89
69335;SHT31;56477;52.742;15.242;2023-04-03T13:31:34;8.46;47.90
69335;SHT31;56477;52.742;15.242;2023-04-03T13:34:10;8.19;46.76
69335;SHT31;56477;52.742;15.242;2023-04-03T13:36:40;7.67;47.14
69335;SHT31;56477;52.742;15.242;2023-04-03T13:41:42;7.77;48.61
69335;SHT31;56477;52.742;15.242;2023-04-03T13:46:53;7.78;47.45
69335;SHT31;56477;52.742;15.242;2023-04-03T13:49:44;8.07;47.28
69335;SHT31;56477;52.742;15.242;2023-04-03T13:52:29;9.29;45.26
69335;SHT31;56477;52.742;15.242;2023-04-03T13:54:59;9.81;43.43
69335;SHT31;56477;52.742;15.242;2023-04-03T13:57:26;9.49;44.14
69335;SHT31;56477;52.742;15.242;2023-04-03T13:59:52;9.00;44.08
69335;SHT31;56477;52.742;15.242;2023-04-03T14:02:30;8.49;45.58
69335;SHT31;56477;52.742;15.242;2023-04-03T14:04:59;8.02;46.20
69335;SHT31;56477;52.742;15.242;2023-04-03T14:07:29;7.61;47.98
69335;SHT31;56477;52.742;15.242;2023-04-03T14:09:56;7.44;47.45
69335;SHT31;56477;52.742;15.242;2023-04-03T14:14:51;7.20;47.80
69335;SHT31;56477;52.742;15.242;2023-04-03T14:17:23;7.23;48.78
69335;SHT31;56477;52.742;15.242;2023-04-03T14:19:51;7.12;48.62
69335;SHT31;56477;52.742;15.242;2023-04-03T14:22:21;7.07;47.61
69335;SHT31;56477;52.742;15.242;2023-04-03T14:24:49;6.95;48.34
69335;SHT31;56477;52.742;15.242;2023-04-03T14:27:21;6.92;48.79
69335;SHT31;56477;52.742;15.242;2023-04-03T14:29:48;6.82;49.24
69335;SHT31;56477;52.742;15.242;2023-04-03T14:32:16;6.99;50.24
69335;SHT31;56477;52.742;15.242;2023-04-03T14:34:43;8.12;48.92
69335;SHT31;56477;52.742;15.242;2023-04-03T14:37:15;9.15;46.97
69335;SHT31;56477;52.742;15.242;2023-04-03T14:39:41;10.12;44.71
69335;SHT31;56477;52.742;15.242;2023-04-03T14:42:20;9.19;46.18
69335;SHT31;56477;52.742;15.242;2023-04-03T14:44:47;8.60;47.44
69335;SHT31;56477;52.742;15.242;2023-04-03T14:47:18;7.98;49.57
69335;SHT31;56477;52.742;15.242;2023-04-03T14:49:46;7.55;49.89
69335;SHT31;56477;52.742;15.242;2023-04-03T14:52:24;7.20;51.71
69335;SHT31;56477;52.742;15.242;2023-04-03T14:54:51;6.92;52.11
69335;SHT31;56477;52.742;15.242;2023-04-03T14:57:18;6.82;52.09
69335;SHT31;56477;52.742;15.242;2023-04-03T14:59:44;6.65;51.61
69335;SHT31;56477;52.742;15.242;2023-04-03T15:02:41;6.74;52.67
69335;SHT31;56477;52.742;15.242;2023-04-03T15:05:10;6.92;52.21
69335;SHT31;56477;52.742;15.242;2023-04-03T15:07:46;7.16;52.63
69335;SHT31;56477;52.742;15.242;2023-04-03T15:12:41;7.20;49.57
69335;SHT31;56477;52.742;15.242;2023-04-03T15:15:07;7.16;48.93
69335;SHT31;56477;52.742;15.242;2023-04-03T15:17:35;7.00;49.70
69335;SHT31;56477;52.742;15.242;2023-04-03T15:20:02;6.81;50.83
69335;SHT31;56477;52.742;15.242;2023-04-03T15:22:29;6.76;51.94
69335;SHT31;56477;52.742;15.242;2023-04-03T15:24:54;6.76;51.36
69335;SHT31;56477;52.742;15.242;2023-04-03T15:27:21;6.81;51.28
69335;SHT31;56477;52.742;15.242;2023-04-03T15:29:47;7.05;50.68
69335;SHT31;56477;52.742;15.242;2023-04-03T15:32:13;7.07;50.97
69335;SHT31;56477;52.742;15.242;2023-04-03T15:34:39;6.92;50.90
69335;SHT31;56477;52.742;15.242;2023-04-03T15:37:05;6.75;52.25
69335;SHT31;56477;52.742;15.242;2023-04-03T15:39:31;6.75;52.70
69335;SHT31;56477;52.742;15.242;2023-04-03T15:41:57;6.57;52.27
69335;SHT31;56477;52.742;15.242;2023-04-03T15:44:29;6.55;52.45
69335;SHT31;56477;52.742;15.242;2023-04-03T15:46:55;6.41;52.34
69335;SHT31;56477;52.742;15.242;2023-04-03T15:49:21;6.33;52.91
69335;SHT31;56477;52.742;15.242;2023-04-03T15:51:48;6.20;53.61
69335;SHT31;56477;52.742;15.242;2023-04-03T15:54:13;6.21;53.53
69335;SHT31;56477;52.742;15.242;2023-04-03T15:56:40;6.06;54.44
69335;SHT31;56477;52.742;15.242;2023-04-03T15:59:06;6.00;53.66
69335;SHT31;56477;52.742;15.242;2023-04-03T16:01:32;5.87;53.58
69335;SHT31;56477;52.742;15.242;2023-04-03T16:03:58;5.96;55.12
69335;SHT31;56477;52.742;15.242;2023-04-03T16:06:25;6.20;53.52
69335;SHT31;56477;52.742;15.242;2023-04-03T16:08:51;7.53;51.59
69335;SHT31;56477;52.742;15.242;2023-04-03T16:11:22;8.87;47.57
69335;SHT31;56477;52.742;15.242;2023-04-03T16:13:48;8.67;46.41
69335;SHT31;56477;52.742;15.242;2023-04-03T16:16:14;8.14;47.09
69335;SHT31;56477;52.742;15.242;2023-04-03T16:18:40;7.54;47.90
69335;SHT31;56477;52.742;15.242;2023-04-03T16:21:07;6.95;48.61
69335;SHT31;56477;52.742;15.242;2023-04-03T16:23:33;6.88;49.50
69335;SHT31;56477;52.742;15.242;2023-04-03T16:26:00;6.58;49.94
69335;SHT31;56477;52.742;15.242;2023-04-03T16:28:26;6.30;50.83
69335;SHT31;56477;52.742;15.242;2023-04-03T16:30:52;6.11;51.20
69335;SHT31;56477;52.742;15.242;2023-04-03T16:33:18;6.05;51.61
69335;SHT31;56477;52.742;15.242;2023-04-03T16:35:48;5.99;52.36
69335;SHT31;56477;52.742;15.242;2023-04-03T16:38:14;5.83;52.88
69335;SHT31;56477;52.742;15.242;2023-04-03T16:40:41;5.86;52.37
69335;SHT31;56477;52.742;15.242;2023-04-03T16:43:08;5.73;53.85
69335;SHT31;56477;52.742;15.242;2023-04-03T16:45:34;5.75;53.52
69335;SHT31;56477;52.742;15.242;2023-04-03T16:48:01;5.70;53.95
69335;SHT31;56477;52.742;15.242;2023-04-03T16:50:27;5.62;54.14
69335;SHT31;56477;52.742;15.242;2023-04-03T16:52:53;5.55;53.87
69335;SHT31;56477;52.742;15.242;2023-04-03T16:55:19;5.47;54.12
69335;SHT31;56477;52.742;15.242;2023-04-03T16:57:46;5.42;55.19
69335;SHT31;56477;52.742;15.242;2023-04-03T17:00:13;5.47;54.45
69335;SHT31;56477;52.742;15.242;2023-04-03T17:02:39;5.39;54.36
69335;SHT31;56477;52.742;15.242;2023-04-03T17:05:06;5.39;55.89
69335;SHT31;56477;52.742;15.242;2023-04-03T17:07:32;5.37;54.42
69335;SHT31;56477;52.742;15.242;2023-04-03T17:09:59;5.24;55.21
69335;SHT31;56477;52.742;15.242;2023-04-03T17:12:25;5.24;55.65
69335;SHT31;56477;52.742;15.242;2023-04-03T17:14:51;5.17;55.91
69335;SHT31;56477;52.742;15.242;2023-04-03T17:17:22;5.13;56.17
69335;SHT31;56477;52.742;15.242;2023-04-03T17:19:50;5.08;57.16
69335;SHT31;56477;52.742;15.242;2023-04-03T17:22:16;5.06;57.74
69335;SHT31;56477;52.742;15.242;2023-04-03T17:24:43;4.99;58.55
69335;SHT31;56477;52.742;15.242;2023-04-03T17:27:09;4.91;59.39
69335;SHT31;56477;52.742;15.242;2023-04-03T17:29:35;4.86;59.36